Time;durP1;ratioP1;P1;durP2;ratioP2;P2;SDS_P1;SDS_P2;PMS_P1;PMS_P2;Temp;Humidity;BMP_temperature;BMP_pressure;BME280_temperature;BME280_humidity;BME280_pressure;Samples;Min_cycle;Max_cycle;Signal;HPM_P1;HPM_P2
2021/04/22 00:02:11;;;;;;;12.47;9.18;;;;;;;5.89;70.49;100250.16;1781840;80;21905;-74
2021/04/22 00:04:39;;;;;;;13.65;8.83;;;;;;;5.90;70.55;100243.14;1763607;80;21098;-72
2021/04/22 00:07:07;;;;;;;13.18;8.55;;;;;;;5.91;70.59;100240.92;1789868;80;21118;-72
2021/04/22 00:09:35;;;;;;;11.78;8.88;;;;;;;5.93;70.60;100245.59;1795494;78;21425;-72
2021/04/22 00:12:06;;;;;;;11.10;8.10;;;;;;;5.93;70.56;100244.28;1794481;78;21181;-72
2021/04/22 00:14:35;;;;;;;13.08;8.28;;;;;;;5.93;70.60;100248.22;1796506;79;21956;-72
2021/04/22 00:17:11;;;;;;;13.43;8.58;;;;;;;5.91;70.67;100244.86;1823435;78;21145;-72
2021/04/22 00:19:40;;;;;;;12.37;8.80;;;;;;;5.90;70.72;100252.31;1825631;78;21472;-72
2021/04/22 00:22:07;;;;;;;13.00;8.85;;;;;;;5.89;70.73;100244.08;1789245;79;21150;-72
2021/04/22 00:24:35;;;;;;;10.90;8.68;;;;;;;5.89;70.69;100243.61;1798079;79;21088;-72
2021/04/22 00:27:04;;;;;;;14.33;9.33;;;;;;;5.91;70.68;100248.31;1767599;80;22038;-72
2021/04/22 00:29:32;;;;;;;15.60;8.60;;;;;;;5.90;70.70;100251.00;1796360;78;21061;-72
2021/04/22 00:32:01;;;;;;;13.28;9.10;;;;;;;5.89;70.68;100248.86;1795254;78;21089;-71
2021/04/22 00:34:29;;;;;;;11.97;9.18;;;;;;;5.88;70.69;100248.45;1786162;79;21492;-71
2021/04/22 00:36:57;;;;;;;16.32;9.68;;;;;;;5.89;70.66;100251.48;1803782;78;21563;-71
2021/04/22 00:39:25;;;;;;;15.93;9.75;;;;;;;5.87;70.65;100248.08;1799091;78;21905;-71
2021/04/22 00:41:55;;;;;;;15.13;9.50;;;;;;;5.87;70.62;100249.39;1786170;78;21420;-71
2021/04/22 00:44:22;;;;;;;13.53;9.15;;;;;;;5.87;70.62;100249.86;1807526;78;21052;-71
2021/04/22 00:46:50;;;;;;;14.18;9.98;;;;;;;5.87;70.60;100256.41;1790041;79;21051;-71
2021/04/22 00:49:18;;;;;;;14.53;9.65;;;;;;;5.85;70.57;100249.97;1805024;78;21126;-72
2021/04/22 00:51:47;;;;;;;14.95;10.60;;;;;;;5.85;70.54;100251.74;1792752;78;22062;-72
2021/04/22 00:54:15;;;;;;;13.15;9.93;;;;;;;5.84;70.53;100256.62;1822871;78;21156;-71
2021/04/22 00:56:44;;;;;;;14.47;9.85;;;;;;;5.81;70.51;100256.34;1828979;78;21145;-72
2021/04/22 00:59:12;;;;;;;14.90;10.55;;;;;;;5.78;70.54;100256.98;1814930;78;21069;-71
2021/04/22 01:01:39;;;;;;;12.03;9.75;;;;;;;5.74;70.62;100253.25;1817457;78;21057;-71
2021/04/22 01:04:08;;;;;;;13.68;9.98;;;;;;;5.70;70.69;100249.14;1776050;79;22468;-71
2021/04/22 01:06:36;;;;;;;12.47;9.73;;;;;;;5.67;70.76;100255.86;1779374;79;21124;-72
2021/04/22 01:09:05;;;;;;;16.65;11.00;;;;;;;5.66;70.77;100259.42;1798754;79;21184;-72
2021/04/22 01:11:33;;;;;;;15.45;10.45;;;;;;;5.61;70.84;100258.03;1797433;78;21035;-72
2021/04/22 01:14:02;;;;;;;13.35;10.15;;;;;;;5.58;70.84;100257.73;1802392;79;21188;-72
2021/04/22 01:16:29;;;;;;;17.40;10.65;;;;;;;5.55;70.86;100258.39;1787997;80;21905;-71
2021/04/22 01:18:58;;;;;;;15.20;10.82;;;;;;;5.53;70.88;100261.58;1796463;79;21248;-71
2021/04/22 01:21:26;;;;;;;16.30;10.58;;;;;;;5.51;70.85;100261.67;1814043;78;21129;-72
2021/04/22 01:23:54;;;;;;;13.08;10.70;;;;;;;5.48;70.88;100260.53;1823755;78;21161;-72
2021/04/22 01:26:24;;;;;;;14.00;10.08;;;;;;;5.44;70.93;100263.81;1799608;78;21034;-72
2021/04/22 01:28:52;;;;;;;14.78;11.30;;;;;;;5.42;71.01;100260.92;1752389;80;22071;-72
2021/04/22 01:31:22;;;;;;;14.30;10.80;;;;;;;5.38;71.02;100263.33;1774251;80;21177;-72
2021/04/22 01:33:50;;;;;;;16.57;12.13;;;;;;;5.35;71.14;100263.52;1809492;78;21050;-72
2021/04/22 01:36:18;;;;;;;13.98;11.25;;;;;;;5.30;71.25;100259.00;1813754;78;21130;-72
2021/04/22 01:38:46;;;;;;;16.60;11.57;;;;;;;5.24;71.34;100254.99;1790137;78;21145;-71
2021/04/22 01:41:14;;;;;;;13.10;10.13;;;;;;;5.20;71.44;100263.10;1798561;79;21567;-72
2021/04/22 01:43:44;;;;;;;14.70;10.55;;;;;;;5.15;71.56;100264.23;1789859;80;21398;-72
2021/04/22 01:46:12;;;;;;;12.30;9.95;;;;;;;5.12;71.63;100259.19;1815592;78;21037;-71
2021/04/22 01:48:40;;;;;;;14.40;9.48;;;;;;;5.10;71.71;100254.48;1815002;78;21050;-72
2021/04/22 01:51:09;;;;;;;11.85;9.53;;;;;;;5.08;71.82;100259.44;1757625;80;21062;-71
2021/04/22 01:53:37;;;;;;;12.80;9.83;;;;;;;5.07;71.90;100261.21;1790363;79;21907;-71
2021/04/22 01:56:05;;;;;;;13.85;9.90;;;;;;;5.08;71.99;100260.28;1762697;80;21157;-71
2021/04/22 01:58:33;;;;;;;11.60;9.43;;;;;;;5.11;72.03;100262.70;1769517;80;21090;-71
2021/04/22 02:01:01;;;;;;;12.03;8.73;;;;;;;5.12;72.06;100259.66;1778078;79;21074;-72
2021/04/22 02:03:31;;;;;;;12.37;8.93;;;;;;;5.11;72.13;100256.16;1792935;79;21050;-71
2021/04/22 02:06:08;;;;;;;11.25;9.50;;;;;;;5.11;72.21;100256.63;1771720;79;22065;-71
2021/04/22 02:08:36;;;;;;;12.50;8.98;;;;;;;5.10;72.27;100251.86;1787657;79;21121;-71
2021/04/22 02:11:05;;;;;;;11.33;9.00;;;;;;;5.10;72.31;100257.56;1745075;80;21173;-71
2021/04/22 02:13:33;;;;;;;12.58;8.83;;;;;;;5.07;72.34;100253.83;1786786;80;21073;-72
2021/04/22 02:16:02;;;;;;;10.80;8.20;;;;;;;5.04;72.40;100254.86;1790989;78;21082;-70
2021/04/22 02:18:31;;;;;;;14.98;9.43;;;;;;;5.02;72.46;100263.70;1786614;79;22064;-71
2021/04/22 02:20:59;;;;;;;13.43;8.73;;;;;;;4.99;72.53;100258.19;1786280;79;21212;-71
2021/04/22 02:23:27;;;;;;;11.63;9.40;;;;;;;4.98;72.60;100263.05;1792836;80;21462;-71
2021/04/22 02:25:55;;;;;;;12.40;9.48;;;;;;;4.96;72.62;100260.16;1783925;79;21200;-71
2021/04/22 02:28:23;;;;;;;11.75;8.83;;;;;;;4.97;72.70;100257.91;1817513;78;21334;-71
2021/04/22 02:30:51;;;;;;;11.88;8.98;;;;;;;4.97;72.73;100258.75;1800885;78;21915;-71
2021/04/22 02:33:19;;;;;;;10.63;9.50;;;;;;;4.98;72.72;100254.36;1782120;80;21483;-73
2021/04/22 02:35:49;;;;;;;15.25;9.60;;;;;;;4.99;72.71;100261.28;1774509;80;21137;-71
2021/04/22 02:38:17;;;;;;;12.53;9.90;;;;;;;5.01;72.70;100266.79;1794367;80;21100;-71
2021/04/22 02:40:46;;;;;;;12.68;9.48;;;;;;;5.00;72.68;100264.27;1795867;80;21141;-70
2021/04/22 02:43:18;;;;;;;13.08;8.70;;;;;;;5.01;72.71;100269.88;1797276;78;21081;-72
2021/04/22 02:45:49;;;;;;;12.50;8.50;;;;;;;5.00;72.69;100273.43;1792695;79;21552;-71
2021/04/22 02:48:19;;;;;;;13.23;8.93;;;;;;;4.97;72.71;100279.69;1798171;79;21470;-69
2021/04/22 02:50:50;;;;;;;10.93;8.65;;;;;;;4.95;72.73;100278.10;1777837;80;21129;-71
2021/04/22 02:53:19;;;;;;;15.18;9.13;;;;;;;4.94;72.78;100284.27;1788309;80;21113;-70
2021/04/22 02:55:47;;;;;;;12.90;9.05;;;;;;;4.92;72.84;100290.03;1793876;78;22040;-71
2021/04/22 02:58:17;;;;;;;10.85;8.58;;;;;;;4.90;72.87;100283.59;1810858;79;21264;-70
2021/04/22 03:00:46;;;;;;;12.90;9.35;;;;;;;4.92;72.90;100289.57;1805124;78;21247;-71
2021/04/22 03:03:14;;;;;;;13.30;9.63;;;;;;;4.93;72.94;100287.83;1784959;80;21161;-72
2021/04/22 03:05:43;;;;;;;16.17;9.98;;;;;;;4.94;72.97;100288.20;1800769;78;21052;-71
2021/04/22 03:08:11;;;;;;;13.60;10.15;;;;;;;4.96;73.00;100290.25;1786418;80;22054;-71
2021/04/22 03:10:39;;;;;;;13.08;10.38;;;;;;;4.98;73.04;100288.39;1788827;79;21448;-71
2021/04/22 03:13:07;;;;;;;13.65;9.75;;;;;;;5.01;73.04;100289.04;1805763;78;21561;-71
2021/04/22 03:15:37;;;;;;;12.40;9.70;;;;;;;5.04;73.02;100288.89;1809180;78;21141;-71
2021/04/22 03:18:06;;;;;;;16.32;9.80;;;;;;;5.05;73.03;100291.03;1773528;80;21132;-70
2021/04/22 03:20:34;;;;;;;13.95;9.73;;;;;;;5.08;73.03;100294.77;1812090;78;22049;-70
2021/04/22 03:23:03;;;;;;;12.37;9.85;;;;;;;5.11;73.05;100298.05;1814273;78;21481;-71
2021/04/22 03:25:31;;;;;;;15.23;9.90;;;;;;;5.14;73.04;100307.52;1796620;78;21046;-71
2021/04/22 03:27:59;;;;;;;12.33;9.40;;;;;;;5.14;73.01;100304.44;1811691;78;21045;-71
2021/04/22 03:30:29;;;;;;;11.48;9.25;;;;;;;5.15;73.02;100321.83;1773665;80;21113;-71
2021/04/22 03:32:57;;;;;;;12.85;10.20;;;;;;;5.15;73.07;100316.59;1798649;78;21748;-71
2021/04/22 03:35:25;;;;;;;11.68;9.93;;;;;;;5.15;73.14;100308.73;1789349;80;21137;-71
2021/04/22 03:37:54;;;;;;;12.53;9.90;;;;;;;5.15;73.12;100316.59;1789730;80;21061;-71
2021/04/22 03:40:23;;;;;;;16.87;9.75;;;;;;;5.18;73.12;100320.33;1817325;78;21158;-71
2021/04/22 03:42:52;;;;;;;19.20;10.53;;;;;;;5.19;73.08;100331.64;1783002;80;21463;-72
2021/04/22 03:45:20;;;;;;;14.68;10.25;;;;;;;5.20;73.12;100339.88;1806965;78;22063;-72
2021/04/22 03:47:49;;;;;;;14.18;9.68;;;;;;;5.18;73.14;100348.30;1782675;80;21092;-71
2021/04/22 03:50:18;;;;;;;14.20;10.03;;;;;;;5.19;73.25;100351.28;1798532;78;21094;-72
2021/04/22 03:52:46;;;;;;;14.20;9.98;;;;;;;5.19;73.32;100357.83;1793027;78;21141;-72
2021/04/22 03:55:16;;;;;;;11.95;9.98;;;;;;;5.22;73.49;100358.14;1812620;78;21140;-73
2021/04/22 03:57:44;;;;;;;14.35;10.40;;;;;;;5.23;73.68;100358.05;1801333;78;22056;-74
2021/04/22 04:00:15;;;;;;;13.72;9.83;;;;;;;5.26;73.91;100364.41;1805515;78;21196;-72
2021/04/22 04:02:43;;;;;;;12.45;9.38;;;;;;;5.28;74.06;100370.40;1795854;78;21097;-72
2021/04/22 04:05:12;;;;;;;11.10;8.43;;;;;;;5.32;74.24;100366.69;1808734;78;21462;-73
2021/04/22 04:07:40;;;;;;;14.07;10.15;;;;;;;5.37;74.51;100371.64;1811720;78;21050;-71
2021/04/22 04:10:09;;;;;;;13.28;9.38;;;;;;;5.42;74.70;100367.00;1802939;79;23374;-71
2021/04/22 04:12:37;;;;;;;12.70;9.33;;;;;;;5.48;74.86;100365.78;1785400;79;21117;-72
2021/04/22 04:15:07;;;;;;;13.43;10.85;;;;;;;5.56;75.07;100374.04;1785768;79;21441;-73
2021/04/22 04:17:36;;;;;;;11.33;8.43;;;;;;;5.63;75.17;100375.38;1769468;79;21130;-73
2021/04/22 04:20:07;;;;;;;14.10;10.65;;;;;;;5.69;75.22;100371.06;1770459;79;21235;-70
2021/04/22 04:22:35;;;;;;;13.32;10.28;;;;;;;5.75;75.28;100385.13;1795794;79;22080;-71
2021/04/22 04:25:08;;;;;;;11.60;9.10;;;;;;;5.80;75.29;100381.78;1811347;78;21212;-71
2021/04/22 04:27:36;;;;;;;13.95;10.78;;;;;;;5.85;75.32;100376.25;1778312;79;21552;-71
2021/04/22 04:30:06;;;;;;;14.03;10.38;;;;;;;5.92;75.33;100381.53;1782793;80;21482;-72
2021/04/22 04:32:40;;;;;;;14.95;11.03;;;;;;;5.97;75.32;100382.93;1787776;80;21137;-72
2021/04/22 04:35:10;;;;;;;17.55;10.60;;;;;;;6.02;75.22;100386.13;1776801;80;22070;-70
2021/04/22 04:37:39;;;;;;;14.50;11.28;;;;;;;6.08;75.12;100384.06;1775647;80;21262;-69
2021/04/22 04:40:09;;;;;;;15.60;11.50;;;;;;;6.15;75.08;100388.00;1782930;78;21119;-70
2021/04/22 04:42:38;;;;;;;14.05;10.75;;;;;;;6.21;75.02;100387.17;1792216;78;21113;-71
2021/04/22 04:45:09;;;;;;;16.12;11.22;;;;;;;6.29;75.02;100393.27;1795265;78;21135;-72
2021/04/22 04:47:37;;;;;;;16.00;11.30;;;;;;;6.38;74.97;100389.23;1805142;78;22054;-71
2021/04/22 04:50:06;;;;;;;14.90;11.45;;;;;;;6.48;74.86;100394.29;1770490;80;21201;-73
2021/04/22 04:52:34;;;;;;;12.33;10.45;;;;;;;6.55;74.81;100388.54;1804782;78;21065;-72
2021/04/22 04:55:04;;;;;;;16.40;10.95;;;;;;;6.65;74.71;100394.05;1815157;78;21045;-72
2021/04/22 04:57:32;;;;;;;11.05;9.60;;;;;;;6.73;74.55;100395.73;1757319;80;21172;-72
2021/04/22 05:00:01;;;;;;;12.45;9.95;;;;;;;6.83;74.31;100398.62;1788487;78;22074;-72
2021/04/22 05:02:29;;;;;;;12.90;10.50;;;;;;;6.91;74.17;100400.77;1781471;80;21144;-70
2021/04/22 05:04:57;;;;;;;15.28;11.35;;;;;;;7.01;74.05;100397.92;1776304;80;21130;-71
2021/04/22 05:07:24;;;;;;;13.35;10.93;;;;;;;7.11;73.92;100397.70;1791975;78;21176;-69
2021/04/22 05:09:53;;;;;;;14.33;10.78;;;;;;;7.20;73.43;100398.89;1811783;78;21089;-70
2021/04/22 05:12:21;;;;;;;16.27;10.80;;;;;;;7.27;73.20;100399.71;1787093;80;23364;-71
2021/04/22 05:14:52;;;;;;;16.37;10.88;;;;;;;7.33;72.87;100399.30;1768186;79;21090;-71
2021/04/22 05:17:21;;;;;;;16.75;10.95;;;;;;;7.41;72.63;100396.17;1781208;80;21228;-70
2021/04/22 05:19:52;;;;;;;15.20;10.58;;;;;;;7.48;72.40;100405.81;1791795;78;21157;-74
2021/04/22 05:22:22;;;;;;;11.75;10.23;;;;;;;7.55;72.10;100403.16;1779004;80;21057;-71
2021/04/22 05:24:50;;;;;;;15.85;11.10;;;;;;;7.61;72.05;100403.57;1808329;78;22086;-71
2021/04/22 05:27:19;;;;;;;15.08;11.18;;;;;;;7.68;71.91;100408.80;1779225;80;21254;-72
2021/04/22 05:29:48;;;;;;;12.90;9.35;;;;;;;7.79;71.98;100401.98;1792568;80;21581;-73
2021/04/22 05:32:16;;;;;;;14.40;11.10;;;;;;;7.88;71.89;100403.52;1805747;79;21582;-70
2021/04/22 05:34:44;;;;;;;15.05;11.20;;;;;;;7.96;71.53;100402.52;1810526;78;21163;-75
2021/04/22 05:37:14;;;;;;;11.33;10.13;;;;;;;8.04;71.49;100413.37;1774522;79;21869;-72
2021/04/22 05:39:41;;;;;;;11.43;9.43;;;;;;;8.16;71.51;100417.42;1780621;79;21144;-70
2021/04/22 05:42:09;;;;;;;14.07;10.10;;;;;;;8.26;71.22;100417.98;1767414;79;21069;-70
2021/04/22 05:44:39;;;;;;;15.55;11.20;;;;;;;8.34;70.96;100406.94;1818641;78;21124;-71
2021/04/22 05:47:07;;;;;;;14.10;10.90;;;;;;;8.43;70.85;100410.28;1792907;78;21118;-74
2021/04/22 05:49:36;;;;;;;14.53;11.10;;;;;;;8.56;71.00;100409.78;1798020;78;21995;-71
2021/04/22 05:52:05;;;;;;;14.13;10.68;;;;;;;8.69;70.58;100415.04;1797741;78;21682;-71
2021/04/22 05:54:33;;;;;;;12.65;10.35;;;;;;;8.79;70.21;100407.33;1792839;79;21092;-70
2021/04/22 05:57:01;;;;;;;12.05;9.90;;;;;;;8.87;69.88;100413.70;1820365;78;21481;-71
2021/04/22 05:59:31;;;;;;;16.12;11.10;;;;;;;8.94;69.61;100414.11;1756909;80;21017;-71
2021/04/22 06:01:59;;;;;;;12.75;11.10;;;;;;;9.01;69.70;100412.73;1799860;78;22056;-70
2021/04/22 06:04:26;;;;;;;13.93;10.88;;;;;;;9.12;69.62;100417.22;1821795;78;21126;-70
2021/04/22 06:06:55;;;;;;;12.68;10.88;;;;;;;9.22;69.49;100416.91;1813801;78;21191;-68
2021/04/22 06:09:23;;;;;;;14.10;10.08;;;;;;;9.34;69.17;100420.44;1770203;80;21077;-71
2021/04/22 06:11:53;;;;;;;13.05;9.83;;;;;;;9.43;68.48;100418.44;1791965;78;21057;-74
2021/04/22 06:14:21;;;;;;;11.57;10.35;;;;;;;9.53;68.42;100420.75;1800584;78;22802;-73
2021/04/22 06:16:50;;;;;;;15.75;10.68;;;;;;;9.64;68.05;100426.06;1784557;79;21081;-73
2021/04/22 06:19:19;;;;;;;11.55;9.75;;;;;;;9.73;67.80;100422.74;1781906;80;21146;-70
2021/04/22 06:21:49;;;;;;;10.38;8.88;;;;;;;9.85;67.56;100430.72;1774954;80;21567;-70
2021/04/22 06:24:19;;;;;;;10.98;9.38;;;;;;;9.95;67.29;100431.70;1761638;80;21125;-75
2021/04/22 06:26:48;;;;;;;14.33;9.98;;;;;;;10.06;67.36;100439.64;1788443;79;22515;-75
2021/04/22 06:29:16;;;;;;;10.03;8.80;;;;;;;10.20;67.51;100427.53;1789589;80;21142;-72
2021/04/22 06:31:47;;;;;;;10.95;9.60;;;;;;;10.34;67.02;100433.59;1788869;79;21159;-72
2021/04/22 06:34:15;;;;;;;11.80;9.73;;;;;;;10.47;66.65;100435.63;1772870;79;21166;-72
2021/04/22 06:36:43;;;;;;;12.47;9.90;;;;;;;10.58;66.68;100436.47;1775760;79;21073;-72
2021/04/22 06:39:11;;;;;;;11.53;8.75;;;;;;;10.74;66.54;100438.76;1778073;79;22056;-72
2021/04/22 06:41:39;;;;;;;11.35;9.23;;;;;;;10.90;66.00;100437.04;1777062;79;21528;-73
2021/04/22 06:44:08;;;;;;;12.60;9.38;;;;;;;11.02;65.26;100437.41;1790182;79;21121;-71
2021/04/22 06:46:38;;;;;;;11.33;9.28;;;;;;;11.13;65.04;100430.77;1788226;79;21124;-73
2021/04/22 06:49:07;;;;;;;12.53;9.18;;;;;;;11.28;64.28;100437.08;1787865;79;21429;-72
2021/04/22 06:51:36;;;;;;;11.57;8.98;;;;;;;11.39;63.35;100431.78;1782612;79;22128;-72
2021/04/22 06:54:05;;;;;;;13.70;9.60;;;;;;;11.50;63.30;100428.25;1818674;78;21666;-72
2021/04/22 06:56:34;;;;;;;9.70;8.30;;;;;;;11.66;63.28;100425.52;1824997;78;21451;-73
2021/04/22 06:59:04;;;;;;;11.65;8.43;;;;;;;11.83;62.52;100432.09;1813275;78;21039;-74
2021/04/22 07:01:32;;;;;;;13.75;8.78;;;;;;;11.95;61.64;100428.41;1819171;78;21046;-74
2021/04/22 07:04:01;;;;;;;13.08;8.83;;;;;;;12.09;61.01;100422.45;1789717;80;22042;-73
2021/04/22 07:06:30;;;;;;;12.30;8.75;;;;;;;12.21;61.23;100420.91;1791930;79;21156;-75
2021/04/22 07:08:59;;;;;;;14.13;9.25;;;;;;;12.36;61.33;100426.72;1778050;79;21113;-72
2021/04/22 07:11:28;;;;;;;11.90;8.33;;;;;;;12.53;61.38;100426.07;1799496;78;21109;-71
2021/04/22 07:13:56;;;;;;;8.40;7.47;;;;;;;12.68;59.10;100432.35;1790419;78;21122;-72
2021/04/22 07:16:24;;;;;;;10.63;8.25;;;;;;;12.80;58.23;100434.76;1778161;79;21996;-70
2021/04/22 07:18:53;;;;;;;10.38;8.75;;;;;;;12.93;57.83;100435.83;1770087;80;21074;-73
2021/04/22 07:21:21;;;;;;;10.58;6.90;;;;;;;13.04;57.81;100429.12;1788897;79;21237;-71
2021/04/22 07:23:49;;;;;;;11.73;7.28;;;;;;;13.15;56.64;100425.51;1788766;79;21581;-71
2021/04/22 07:26:17;;;;;;;9.93;6.10;;;;;;;13.30;56.28;100433.92;1790708;78;21540;-72
2021/04/22 07:28:45;;;;;;;9.78;5.97;;;;;;;13.42;55.38;100420.91;1773198;78;22585;-71
2021/04/22 07:31:19;;;;;;;8.18;6.30;;;;;;;13.56;53.60;100431.58;1805756;78;21209;-75
2021/04/22 07:33:50;;;;;;;9.30;6.20;;;;;;;13.65;53.02;100426.76;1774052;80;21086;-72
2021/04/22 07:36:18;;;;;;;9.18;5.75;;;;;;;13.78;53.44;100429.95;1800489;78;21150;-70
2021/04/22 07:38:48;;;;;;;8.28;6.00;;;;;;;13.89;52.87;100428.47;1786376;80;21430;-70
2021/04/22 07:41:18;;;;;;;8.45;5.78;;;;;;;13.98;51.23;100434.75;1808513;78;22059;-74
2021/04/22 07:43:46;;;;;;;8.30;5.20;;;;;;;14.05;52.76;100429.23;1795422;78;21105;-71
2021/04/22 07:46:14;;;;;;;6.92;5.50;;;;;;;14.20;52.06;100425.15;1783435;80;21117;-71
2021/04/22 07:48:44;;;;;;;7.35;5.33;;;;;;;14.39;50.18;100428.73;1782144;80;21514;-72
2021/04/22 07:51:13;;;;;;;8.00;5.65;;;;;;;14.48;50.05;100429.23;1771539;79;21053;-70
2021/04/22 07:53:41;;;;;;;7.37;5.50;;;;;;;14.54;50.27;100434.78;1804768;78;22776;-71
2021/04/22 07:56:08;;;;;;;10.23;5.65;;;;;;;14.61;50.29;100432.38;1789163;78;21433;-71
2021/04/22 07:58:36;;;;;;;7.08;5.10;;;;;;;14.66;50.29;100438.08;1772735;79;21561;-71
2021/04/22 08:01:04;;;;;;;8.70;4.53;;;;;;;14.77;49.57;100428.61;1819086;78;21196;-71
2021/04/22 08:03:34;;;;;;;8.60;5.08;;;;;;;14.88;48.68;100428.91;1783890;79;21082;-70
2021/04/22 08:06:03;;;;;;;11.35;4.87;;;;;;;15.00;47.69;100429.53;1783581;79;22060;-71
2021/04/22 08:08:31;;;;;;;6.55;4.33;;;;;;;15.09;47.96;100424.16;1780087;79;21619;-72
2021/04/22 08:11:01;;;;;;;9.35;4.45;;;;;;;15.16;47.54;100419.91;1798492;78;21377;-70
2021/04/22 08:13:29;;;;;;;7.17;4.50;;;;;;;15.29;46.35;100428.85;1786908;79;21208;-71
2021/04/22 08:15:58;;;;;;;6.65;4.17;;;;;;;15.39;46.03;100438.94;1789275;78;21118;-73
2021/04/22 08:18:28;;;;;;;4.80;4.00;;;;;;;15.41;45.44;100424.97;1788042;79;22111;-73
2021/04/22 08:20:57;;;;;;;6.55;3.90;;;;;;;15.48;45.47;100419.05;1780077;79;21588;-74
2021/04/22 08:23:28;;;;;;;9.40;4.40;;;;;;;15.60;45.03;100423.15;1809040;78;21208;-76
2021/04/22 08:25:57;;;;;;;6.72;4.40;;;;;;;15.69;45.06;100425.77;1813372;78;21193;-73
2021/04/22 08:28:27;;;;;;;7.10;4.00;;;;;;;15.79;43.70;100413.69;1793659;79;21488;-72
2021/04/22 08:31:22;;;;;;;6.78;4.00;;;;;;;15.91;43.82;100416.44;1793268;79;22065;-72
2021/04/22 08:33:52;;;;;;;4.78;3.65;;;;;;;16.03;43.49;100408.56;1786738;78;21447;-74
2021/04/22 08:36:21;;;;;;;4.15;3.30;;;;;;;16.14;43.39;100406.63;1789710;79;21172;-73
2021/04/22 08:38:49;;;;;;;5.20;3.75;;;;;;;16.31;42.66;100413.23;1798935;78;21200;-73
2021/04/22 08:41:18;;;;;;;6.62;3.35;;;;;;;16.48;41.86;100404.81;1784492;79;21167;-73
2021/04/22 08:43:47;;;;;;;3.70;2.72;;;;;;;16.55;39.16;100405.02;1782456;79;22055;-71
2021/04/22 08:46:16;;;;;;;5.28;3.27;;;;;;;16.54;40.22;100396.19;1811675;78;21613;-74
2021/04/22 08:48:45;;;;;;;5.72;3.87;;;;;;;16.63;39.38;100394.89;1745304;80;21262;-71
2021/04/22 08:51:13;;;;;;;5.78;3.98;;;;;;;16.60;39.17;100402.22;1785690;78;21355;-73
2021/04/22 08:53:44;;;;;;;6.30;4.10;;;;;;;16.54;40.36;100401.52;1789993;79;21176;-73
2021/04/22 08:56:13;;;;;;;4.65;3.67;;;;;;;16.44;40.17;100405.30;1790823;79;22206;-72
2021/04/22 08:58:42;;;;;;;6.67;3.70;;;;;;;16.34;40.50;100397.42;1795127;78;21543;-73
2021/04/22 09:01:12;;;;;;;6.45;4.00;;;;;;;16.25;39.88;100403.20;1796140;79;21152;-76
2021/04/22 09:03:41;;;;;;;5.33;4.00;;;;;;;16.19;39.88;100394.98;1796774;79;21155;-73
2021/04/22 09:06:10;;;;;;;5.95;3.62;;;;;;;16.10;40.04;100397.25;1788701;79;21169;-74
2021/04/22 09:08:50;;;;;;;5.20;3.42;;;;;;;16.00;39.20;100398.20;1812034;78;21715;-73
2021/04/22 09:11:21;;;;;;;5.40;3.40;;;;;;;15.95;39.11;100399.67;1791435;78;21663;-75
2021/04/22 09:13:50;;;;;;;4.37;3.75;;;;;;;15.89;39.03;100390.95;1789045;78;21419;-74
2021/04/22 09:16:23;;;;;;;6.90;3.87;;;;;;;15.85;39.33;100386.95;1810581;78;21410;-74
2021/04/22 09:18:54;;;;;;;5.78;3.50;;;;;;;15.86;39.74;100389.45;1809809;78;21061;-74
2021/04/22 09:21:27;;;;;;;4.75;3.02;;;;;;;15.89;39.03;100396.28;1794090;78;22967;-72
2021/04/22 09:24:15;;;;;;;5.75;3.60;;;;;;;15.92;38.57;100390.64;1789910;78;25449;-74
2021/04/22 09:27:02;;;;;;;4.08;3.00;;;;;;;15.95;38.38;100391.19;1770776;80;21240;-74
2021/04/22 09:29:41;;;;;;;3.80;3.05;;;;;;;15.98;38.57;100388.20;1789825;80;21555;-73
2021/04/22 09:32:16;;;;;;;3.40;2.90;;;;;;;16.04;38.80;100386.75;1804213;78;21170;-74
2021/04/22 09:35:06;;;;;;;5.85;3.27;;;;;;;16.19;39.08;100383.83;1793461;80;22061;-74
2021/04/22 09:37:49;;;;;;;7.30;3.50;;;;;;;16.44;38.44;100382.14;1785478;78;21538;-74
2021/04/22 09:40:37;;;;;;;4.95;3.20;;;;;;;16.72;38.11;100380.63;1794749;78;21105;-73
2021/04/22 09:43:08;;;;;;;3.42;3.10;;;;;;;16.88;37.84;100388.16;1798718;78;21340;-71
2021/04/22 09:45:36;;;;;;;4.40;3.20;;;;;;;16.92;36.87;100385.19;1761123;80;21146;-75
2021/04/22 09:48:26;;;;;;;7.00;3.70;;;;;;;16.86;37.24;100386.16;1787718;80;22031;-75
2021/04/22 09:50:52;;;;;;;4.40;3.42;;;;;;;16.93;38.08;100382.36;1812710;78;21093;-73
2021/04/22 09:53:22;;;;;;;7.17;4.00;;;;;;;17.09;38.22;100378.91;1789794;78;21548;-74
2021/04/22 09:55:49;;;;;;;6.83;3.45;;;;;;;17.22;38.16;100376.58;1773745;80;21193;-73
2021/04/22 09:58:28;;;;;;;7.58;3.60;;;;;;;17.42;37.09;100375.77;1791301;80;21528;-73
2021/04/22 10:00:57;;;;;;;5.40;3.50;;;;;;;17.62;37.61;100371.77;1798723;79;22037;-74
2021/04/22 10:03:24;;;;;;;6.08;4.30;;;;;;;17.86;36.88;100374.12;1787250;78;21142;-75
2021/04/22 10:06:03;;;;;;;4.95;3.87;;;;;;;18.06;37.00;100368.75;1792707;78;21086;-75
2021/04/22 10:08:31;;;;;;;6.03;3.35;;;;;;;18.30;37.69;100368.67;1777493;80;21583;-73
2021/04/22 10:11:04;;;;;;;5.53;2.95;;;;;;;18.44;35.03;100372.48;1803037;78;21490;-72
2021/04/22 10:13:48;;;;;;;5.53;3.55;;;;;;;18.35;34.73;100358.81;1775768;79;22110;-73
2021/04/22 10:16:17;;;;;;;5.90;3.58;;;;;;;18.23;35.79;100361.50;1822876;78;21065;-76
2021/04/22 10:18:45;;;;;;;6.22;3.22;;;;;;;18.13;35.94;100359.02;1798965;79;21065;-74
2021/04/22 10:21:13;;;;;;;6.80;3.30;;;;;;;18.04;36.23;100346.68;1816401;78;21097;-75
2021/04/22 10:23:42;;;;;;;6.25;3.50;;;;;;;18.08;36.46;100346.69;1790903;80;21053;-75
2021/04/22 10:26:21;;;;;;;4.67;3.15;;;;;;;18.33;35.77;100361.30;1769565;80;22518;-73
2021/04/22 10:28:49;;;;;;;4.85;2.75;;;;;;;18.62;35.71;100362.86;1769186;80;21277;-70
2021/04/22 10:31:17;;;;;;;5.87;2.98;;;;;;;18.93;33.17;100363.43;1794333;79;21552;-75
2021/04/22 10:33:45;;;;;;;3.25;2.92;;;;;;;19.10;34.13;100357.77;1799356;79;21068;-74
2021/04/22 10:36:16;;;;;;;4.40;3.00;;;;;;;19.27;32.06;100359.02;1772579;79;21067;-74
2021/04/22 10:38:43;;;;;;;3.00;2.37;;;;;;;19.13;32.42;100352.59;1799085;79;22048;-74
2021/04/22 10:41:11;;;;;;;5.22;2.83;;;;;;;18.93;32.99;100356.23;1818805;78;21201;-74
2021/04/22 10:43:39;;;;;;;4.58;3.15;;;;;;;18.78;33.40;100352.63;1813498;78;21106;-75
2021/04/22 10:46:08;;;;;;;4.12;3.20;;;;;;;18.62;33.87;100357.51;1824899;78;21321;-74
2021/04/22 10:48:36;;;;;;;4.47;3.85;;;;;;;18.54;33.95;100355.73;1788991;79;21116;-79
2021/04/22 10:51:06;;;;;;;6.62;2.95;;;;;;;18.56;33.86;100344.85;1793314;79;22339;-76
2021/04/22 10:53:39;;;;;;;3.95;2.80;;;;;;;18.67;33.63;100356.53;1817472;78;21516;-76
2021/04/22 10:56:09;;;;;;;5.67;3.33;;;;;;;18.79;32.21;100342.25;1780074;80;21130;-75
2021/04/22 10:58:43;;;;;;;4.20;3.20;;;;;;;18.80;32.43;100354.11;1751933;80;21149;-79
2021/04/22 11:01:13;;;;;;;5.12;3.08;;;;;;;18.73;32.64;100349.16;1785364;79;21046;-75
2021/04/22 11:03:45;;;;;;;8.33;3.35;;;;;;;18.60;33.34;100346.16;1782856;80;22064;-74
2021/04/22 11:06:20;;;;;;;4.53;3.17;;;;;;;18.53;33.38;100336.68;1773838;81;21078;-74
2021/04/22 11:08:54;;;;;;;5.30;3.17;;;;;;;18.49;33.53;100335.34;1799089;79;21101;-74
2021/04/22 11:11:29;;;;;;;5.42;2.95;;;;;;;18.46;33.75;100329.52;1796657;79;21068;-74
2021/04/22 11:14:14;;;;;;;4.22;2.80;;;;;;;18.45;33.72;100335.87;1786155;79;21136;-74
2021/04/22 11:16:51;;;;;;;3.80;3.05;;;;;;;18.52;33.51;100317.59;1761210;80;22164;-73
2021/04/22 11:19:22;;;;;;;6.45;2.95;;;;;;;18.80;33.57;100320.66;1778722;78;21113;-73
2021/04/22 11:21:56;;;;;;;4.10;2.90;;;;;;;19.15;32.29;100325.13;1780107;80;21096;-73
2021/04/22 11:24:32;;;;;;;6.47;2.65;;;;;;;19.32;30.95;100345.94;1783374;80;21066;-76
2021/04/22 11:27:10;;;;;;;4.42;2.72;;;;;;;19.28;31.69;100318.66;1783195;78;21111;-74
2021/04/22 11:29:53;;;;;;;5.40;3.10;;;;;;;19.22;31.36;100324.75;1811765;78;22056;-73
2021/04/22 11:32:30;;;;;;;4.00;3.10;;;;;;;19.13;32.71;100325.82;1777283;79;21189;-73
2021/04/22 11:35:10;;;;;;;3.87;2.95;;;;;;;19.07;32.31;100318.49;1803894;78;21109;-77